Time;durP1;ratioP1;P1;durP2;ratioP2;P2;SDS_P1;SDS_P2;PMS_P1;PMS_P2;Temp;Humidity;BMP_temperature;BMP_pressure;BME280_temperature;BME280_humidity;BME280_pressure;Samples;Min_cycle;Max_cycle;Signal;HPM_P1;HPM_P2
2022/08/13 00:01:04;;;;;;;;;7.00;7.00;;;;;30.14;22.22;100611.19;4883070;29;45737;-59
2022/08/13 00:03:30;;;;;;;;;5.40;5.40;;;;;30.01;22.05;100604.63;4852964;29;45522;-59
2022/08/13 00:05:56;;;;;;;;;6.50;6.50;;;;;29.86;22.26;100578.66;4883095;29;45407;-59
2022/08/13 00:08:25;;;;;;;;;5.75;5.75;;;;;29.85;22.41;100591.16;4866239;29;45409;-59
2022/08/13 00:10:51;;;;;;;;;6.80;6.80;;;;;29.95;22.27;100611.69;4882827;29;46303;-59
2022/08/13 00:13:18;;;;;;;;;6.60;6.60;;;;;29.97;21.86;100612.16;4865899;29;45412;-59
2022/08/13 00:15:45;;;;;;;;;7.80;7.40;;;;;29.92;22.21;100603.91;4866691;29;45402;-59
2022/08/13 00:18:16;;;;;;;;;6.00;5.40;;;;;29.80;22.65;100590.53;4883381;29;45321;-59
2022/08/13 00:20:48;;;;;;;;;5.80;5.40;;;;;29.90;22.74;100615.56;4883040;29;45534;-60
2022/08/13 00:23:14;;;;;;;;;5.20;4.80;;;;;29.87;22.46;100614.25;4882619;29;45242;-59
2022/08/13 00:25:40;;;;;;;;;6.75;5.25;;;;;29.81;22.67;100606.34;4814016;29;45434;-59
2022/08/13 00:28:05;;;;;;;;;6.00;6.00;;;;;29.74;22.76;100610.56;4848024;29;45251;-59
2022/08/13 00:30:33;;;;;;;;;6.50;6.50;;;;;29.71;22.99;100619.72;4863799;29;45776;-58
2022/08/13 00:33:12;;;;;;;;;6.00;6.00;;;;;29.65;22.74;100601.31;4864208;29;45667;-58
2022/08/13 00:35:47;;;;;;;;;6.00;6.00;;;;;29.72;22.36;100612.06;4864170;29;45343;-59
2022/08/13 00:38:16;;;;;;;;;5.20;5.20;;;;;29.73;22.64;100611.72;4847745;29;45558;-60
2022/08/13 00:40:46;;;;;;;;;6.00;6.00;;;;;29.67;22.22;100612.28;4847526;29;46731;-58
2022/08/13 00:43:12;;;;;;;;;5.00;5.00;;;;;29.48;22.20;100596.63;4863794;29;45312;-60
2022/08/13 00:45:37;;;;;;;;;5.25;5.25;;;;;29.55;22.77;100604.56;4870101;29;45280;-58
2022/08/13 00:50:50;;;;;;;;;5.40;5.40;;;;;29.42;22.99;100601.66;4882127;29;45812;-59
2022/08/13 00:53:18;;;;;;;;;5.80;5.80;;;;;29.48;22.43;100614.44;4865770;29;45462;-60
2022/08/13 00:55:48;;;;;;;;;6.60;5.20;;;;;29.37;22.96;100596.19;4865900;29;45725;-58
2022/08/13 00:58:17;;;;;;;;;6.40;5.60;;;;;29.43;22.32;100614.59;4866066;29;45348;-59
2022/08/13 01:00:56;;;;;;;;;5.60;5.60;;;;;29.35;22.51;100609.84;4865624;29;45902;-59
2022/08/13 01:03:21;;;;;;;;;5.00;5.00;;;;;29.36;22.70;100614.31;4882167;29;45488;-57
2022/08/13 01:05:48;;;;;;;;;4.00;4.00;;;;;29.19;22.57;100590.66;4882101;29;45389;-59
2022/08/13 01:08:18;;;;;;;;;7.80;6.80;;;;;29.24;23.37;100619.91;4882296;29;45359;-56
2022/08/13 01:10:48;;;;;;;;;6.80;6.80;;;;;29.21;23.13;100624.22;4881897;29;46559;-59
2022/08/13 01:13:14;;;;;;;;;6.00;6.00;;;;;29.21;22.85;100618.59;4865319;29;45395;-60
2022/08/13 01:15:41;;;;;;;;;7.00;7.00;;;;;29.19;23.16;100621.75;4865234;29;45471;-60
2022/08/13 01:18:13;;;;;;;;;6.20;5.00;;;;;29.20;23.12;100617.75;4865237;29;45365;-59
2022/08/13 01:20:48;;;;;;;;;4.40;4.40;;;;;29.19;23.75;100616.09;4881664;29;45484;-58
2022/08/13 01:23:14;;;;;;;;;6.80;6.80;;;;;29.04;23.13;100600.59;4849782;29;45259;-59
2022/08/13 01:25:40;;;;;;;;;4.40;4.40;;;;;29.13;23.81;100622.31;4865342;29;45368;-60
2022/08/13 01:28:08;;;;;;;;;3.00;3.00;;;;;29.08;23.78;100620.50;4873804;29;45899;-59
2022/08/13 01:30:33;;;;;;;;;6.40;6.40;;;;;29.08;23.69;100614.84;4881707;29;45692;-59
2022/08/13 01:33:02;;;;;;;;;6.00;5.50;;;;;29.05;23.57;100613.53;4838660;29;45833;-59
2022/08/13 01:35:28;;;;;;;;;5.20;5.20;;;;;29.02;23.78;100605.72;4864727;29;45437;-59
2022/08/13 01:37:54;;;;;;;;;5.75;5.75;;;;;29.06;23.83;100615.19;4865111;29;45272;-59
2022/08/13 01:40:19;;;;;;;;;7.50;6.00;;;;;29.00;23.38;100619.38;4864327;29;45722;-59
2022/08/13 01:42:45;;;;;;;;;5.50;5.50;;;;;28.91;23.53;100610.13;4881864;29;45300;-59
2022/08/13 01:45:12;;;;;;;;;5.00;5.00;;;;;28.92;23.67;100611.78;4828584;28;45580;-57
2022/08/13 01:50:30;;;;;;;;;5.00;5.00;;;;;28.73;24.02;100589.59;4881127;29;45960;-56
2022/08/13 01:53:04;;;;;;;;;7.20;5.00;;;;;28.74;24.63;100594.91;4881479;29;45361;-56
2022/08/13 01:55:37;;;;;;;;;6.00;5.00;;;;;28.84;24.64;100619.09;4864577;29;45359;-56
2022/08/13 01:58:04;;;;;;;;;7.40;7.40;;;;;28.68;24.35;100610.38;4881888;29;45256;-57
2022/08/13 02:00:30;;;;;;;;;3.80;3.80;;;;;28.74;24.89;100617.50;4879659;29;45366;-57
2022/08/13 02:02:57;;;;;;;;;7.80;6.00;;;;;28.81;24.45;100622.63;4881168;29;45263;-56
2022/08/13 02:05:24;;;;;;;;;6.40;5.40;;;;;28.77;24.98;100622.44;4880924;29;45398;-56
2022/08/13 02:07:50;;;;;;;;;5.00;5.00;;;;;28.45;24.45;100601.34;4881440;29;45426;-57
2022/08/13 02:10:17;;;;;;;;;4.75;4.75;;;;;28.45;25.11;100592.88;4848219;29;46159;-56
2022/08/13 02:12:46;;;;;;;;;5.00;5.00;;;;;28.58;25.29;100630.53;4848715;29;45279;-57
2022/08/13 02:15:11;;;;;;;;;6.60;5.40;;;;;28.36;24.73;100607.00;4864528;29;45216;-55
2022/08/13 02:17:40;;;;;;;;;5.50;5.00;;;;;28.53;25.47;100623.06;4848889;29;45400;-57
2022/08/13 02:20:06;;;;;;;;;7.60;7.40;;;;;28.52;24.57;100627.03;4863930;29;45830;-59
2022/08/13 02:22:31;;;;;;;;;6.75;5.25;;;;;28.54;24.69;100621.88;4863809;29;45478;-57
2022/08/13 02:24:57;;;;;;;;;5.50;5.50;;;;;28.49;25.41;100617.25;4880865;29;45233;-56
2022/08/13 02:27:24;;;;;;;;;5.00;5.00;;;;;28.54;24.89;100627.53;4880944;29;45289;-55
2022/08/13 02:29:54;;;;;;;;;5.60;5.60;;;;;28.42;25.02;100611.31;4880306;29;45683;-56
2022/08/13 02:32:23;;;;;;;;;6.00;4.80;;;;;28.57;25.45;100624.03;4880356;29;45418;-56
2022/08/13 02:34:51;;;;;;;;;6.80;5.60;;;;;28.57;25.23;100628.84;4880195;29;45296;-56
2022/08/13 02:37:21;;;;;;;;;4.80;4.80;;;;;28.30;24.68;100577.31;4864515;29;45382;-57
2022/08/13 02:39:48;;;;;;;;;5.00;5.00;;;;;28.41;24.58;100595.53;4879878;29;46309;-57
2022/08/13 02:42:13;;;;;;;;;5.00;5.00;;;;;28.56;25.23;100622.38;4880555;29;45236;-57
2022/08/13 02:44:39;;;;;;;;;5.00;5.00;;;;;28.48;24.74;100626.88;4880237;29;45393;-58
2022/08/13 02:47:05;;;;;;;;;5.75;5.75;;;;;28.22;24.88;100602.41;4880445;29;45335;-57
2022/08/13 02:49:31;;;;;;;;;5.20;5.20;;;;;28.12;25.59;100623.31;4880133;29;45756;-55
2022/08/13 02:51:57;;;;;;;;;4.40;4.40;;;;;28.05;25.68;100605.25;4880248;29;45407;-57
2022/08/13 02:54:23;;;;;;;;;6.40;5.20;;;;;28.21;25.23;100620.50;4880517;29;45534;-55
2022/08/13 02:56:48;;;;;;;;;7.00;7.00;;;;;28.25;25.31;100613.03;4880073;29;45434;-57
2022/08/13 02:59:14;;;;;;;;;5.00;5.00;;;;;28.25;25.48;100618.69;4880295;29;45487;-58
2022/08/13 03:01:40;;;;;;;;;5.00;5.00;;;;;28.21;25.31;100619.63;4863194;29;45363;-57
2022/08/13 03:04:09;;;;;;;;;6.60;5.40;;;;;28.26;25.36;100631.63;4879804;29;45359;-57
2022/08/13 03:06:35;;;;;;;;;6.80;6.20;;;;;28.22;25.10;100627.78;4863555;29;45291;-57
2022/08/13 03:09:02;;;;;;;;;6.75;5.75;;;;;28.19;25.48;100630.44;4862747;29;48647;-57
2022/08/13 03:11:30;;;;;;;;;6.40;5.40;;;;;28.20;25.50;100630.09;4879416;29;45343;-57
2022/08/13 03:14:07;;;;;;;;;6.60;5.60;;;;;28.22;25.23;100622.16;4863459;29;45320;-57
2022/08/13 03:16:33;;;;;;;;;5.20;5.20;;;;;28.23;25.88;100620.97;4863409;29;45388;-57
2022/08/13 03:18:58;;;;;;;;;6.00;5.00;;;;;28.08;25.38;100621.50;4880081;29;46643;-57
2022/08/13 03:21:26;;;;;;;;;8.00;6.50;;;;;28.09;25.42;100623.16;4880219;29;45437;-58
2022/08/13 03:23:51;;;;;;;;;6.00;6.00;;;;;28.07;25.58;100617.84;4880145;29;45286;-55
2022/08/13 03:26:18;;;;;;;;;5.00;5.00;;;;;28.07;25.52;100611.38;4880305;29;45359;-57
2022/08/13 03:28:44;;;;;;;;;5.00;4.00;;;;;27.91;25.70;100613.91;4879866;29;46851;-57
2022/08/13 03:31:09;;;;;;;;;6.75;5.00;;;;;27.96;25.64;100617.34;4879513;29;45349;-57
2022/08/13 03:33:35;;;;;;;;;6.00;6.00;;;;;27.90;25.61;100607.41;4880435;29;45324;-56
2022/08/13 03:36:00;;;;;;;;;7.75;6.50;;;;;27.94;25.81;100616.03;4879830;29;45692;-57
2022/08/13 03:38:26;;;;;;;;;4.75;4.75;;;;;27.87;25.18;100592.00;4879521;29;45691;-58
2022/08/13 03:41:00;;;;;;;;;7.50;5.00;;;;;27.96;25.28;100620.19;4879412;29;45420;-58
2022/08/13 03:43:27;;;;;;;;;5.60;5.60;;;;;27.85;25.76;100618.88;4864261;29;45475;-58
2022/08/13 03:45:54;;;;;;;;;5.80;5.00;;;;;27.79;25.77;100615.38;4863090;29;45594;-56
2022/08/13 03:48:19;;;;;;;;;5.00;5.00;;;;;27.84;26.25;100614.38;4879433;29;45792;-57
2022/08/13 03:50:46;;;;;;;;;5.00;5.00;;;;;27.88;26.17;100615.38;4862751;29;45300;-58
2022/08/13 03:53:12;;;;;;;;;5.00;5.00;;;;;27.76;25.93;100613.25;4879889;29;45326;-58
2022/08/13 03:55:42;;;;;;;;;5.00;5.00;;;;;27.79;25.83;100620.22;4880191;29;45304;-58
2022/08/13 03:58:07;;;;;;;;;7.40;6.20;;;;;27.71;25.66;100610.59;4863246;29;45471;-57
2022/08/13 04:00:34;;;;;;;;;6.25;5.75;;;;;27.73;25.69;100614.75;4847301;29;45190;-57
2022/08/13 04:03:02;;;;;;;;;8.00;6.00;;;;;27.59;25.68;100591.53;4863252;29;45926;-56
2022/08/13 04:05:28;;;;;;;;;6.40;6.40;;;;;27.61;26.14;100620.22;4879678;29;45452;-53
2022/08/13 04:07:53;;;;;;;;;6.50;6.50;;;;;27.53;26.18;100615.38;4879633;29;45368;-58
2022/08/13 04:10:19;;;;;;;;;5.75;5.75;;;;;27.39;26.29;100613.56;4879277;29;45394;-56
2022/08/13 04:12:45;;;;;;;;;5.00;5.00;;;;;27.43;26.51;100614.53;4862769;29;45326;-57
2022/08/13 04:15:11;;;;;;;;;6.75;5.25;;;;;27.51;26.29;100617.69;4879598;29;45607;-57
2022/08/13 04:17:36;;;;;;;;;5.75;5.75;;;;;27.41;26.34;100614.03;4879688;29;45669;-58
2022/08/13 04:20:10;;;;;;;;;5.20;4.80;;;;;27.24;26.48;100591.47;4862627;29;45396;-58
2022/08/13 04:22:39;;;;;;;;;7.40;6.60;;;;;27.36;26.76;100617.00;4869380;29;45370;-56
2022/08/13 04:25:06;;;;;;;;;4.60;4.60;;;;;27.42;26.23;100624.16;4880807;29;45733;-56
2022/08/13 04:27:32;;;;;;;;;5.40;5.40;;;;;27.44;26.08;100621.81;4864489;29;48637;-57
2022/08/13 04:29:59;;;;;;;;;6.60;6.60;;;;;27.24;26.45;100602.75;4881614;29;45406;-57
2022/08/13 04:32:24;;;;;;;;;6.00;6.00;;;;;27.08;26.92;100599.56;4865185;29;45502;-58
2022/08/13 04:34:50;;;;;;;;;6.75;6.25;;;;;27.13;26.50;100605.06;4880154;29;45470;-58
2022/08/13 04:37:16;;;;;;;;;6.00;4.50;;;;;27.33;26.63;100612.88;4845247;29;45486;-58
2022/08/13 04:39:42;;;;;;;;;5.00;5.00;;;;;27.22;26.70;100621.97;4881332;29;45518;-55
2022/08/13 04:42:08;;;;;;;;;5.00;5.00;;;;;27.18;26.77;100614.19;4862941;29;45336;-56
2022/08/13 04:44:34;;;;;;;;;5.50;5.50;;;;;27.16;26.79;100612.84;4881170;29;45549;-58
2022/08/13 04:46:59;;;;;;;;;7.40;6.40;;;;;26.92;26.90;100600.03;4865317;29;45478;-56
2022/08/13 04:49:25;;;;;;;;;5.50;5.50;;;;;27.13;27.08;100614.34;4865122;29;45302;-57
2022/08/13 04:51:51;;;;;;;;;5.75;5.75;;;;;27.09;26.83;100615.31;4882206;29;45304;-56
2022/08/13 04:54:19;;;;;;;;;4.00;4.00;;;;;27.12;26.95;100623.09;4882516;29;45682;-56
2022/08/13 04:56:45;;;;;;;;;5.60;5.40;;;;;26.88;26.83;100601.81;4865354;29;45643;-58
2022/08/13 04:59:11;;;;;;;;;6.00;5.00;;;;;27.04;27.10;100627.56;4882087;29;45252;-57
2022/08/13 05:01:37;;;;;;;;;5.50;5.50;;;;;27.04;27.18;100616.28;4882011;29;45507;-57
2022/08/13 05:04:03;;;;;;;;;4.25;4.25;;;;;27.07;26.97;100626.91;4850249;29;45260;-58
2022/08/13 05:06:29;;;;;;;;;5.80;5.20;;;;;27.04;26.96;100619.94;4864845;29;46770;-56
2022/08/13 05:08:56;;;;;;;;;6.25;6.25;;;;;27.06;27.05;100614.00;4882075;29;45331;-57
2022/08/13 05:11:22;;;;;;;;;6.80;5.40;;;;;27.02;27.01;100618.63;4882120;29;45363;-57
2022/08/13 05:13:47;;;;;;;;;6.00;6.00;;;;;27.03;27.33;100617.44;4865208;29;45326;-57
2022/08/13 05:16:15;;;;;;;;;7.00;5.00;;;;;27.10;27.49;100626.25;4882031;29;45690;-57
2022/08/13 05:18:45;;;;;;;;;4.80;4.80;;;;;27.00;27.38;100620.94;4865152;29;45403;-57
2022/08/13 05:21:11;;;;;;;;;5.80;5.80;;;;;26.99;27.27;100630.53;4881853;29;45274;-57
2022/08/13 05:23:38;;;;;;;;;7.40;7.40;;;;;27.01;26.96;100634.66;4882058;29;45482;-57
2022/08/13 05:26:03;;;;;;;;;5.00;5.00;;;;;26.74;27.52;100588.69;4881590;29;45686;-57
2022/08/13 05:28:31;;;;;;;;;5.00;5.00;;;;;26.88;27.72;100616.72;4849307;29;45925;-57
2022/08/13 05:30:57;;;;;;;;;5.80;5.80;;;;;26.84;27.65;100624.16;4849736;29;45269;-57
2022/08/13 05:33:24;;;;;;;;;5.00;5.00;;;;;26.82;27.71;100615.22;4849401;29;45707;-56
2022/08/13 05:35:52;;;;;;;;;6.40;5.60;;;;;26.50;27.80;100559.00;4822162;29;47588;-57
2022/08/13 05:38:21;;;;;;;;;5.20;5.20;;;;;26.83;27.76;100627.31;4876464;29;45472;-57
2022/08/13 05:40:47;;;;;;;;;10.00;7.20;;;;;26.61;27.90;100603.69;4863840;29;45434;-59
2022/08/13 05:43:16;;;;;;;;;6.25;6.25;;;;;26.53;27.71;100603.34;4881718;29;45830;-55
2022/08/13 05:45:42;;;;;;;;;4.20;4.20;;;;;26.64;28.00;100625.59;4880951;29;45517;-56
2022/08/13 05:48:08;;;;;;;;;6.20;5.00;;;;;26.50;27.82;100605.97;4864035;29;45239;-55
2022/08/13 05:50:34;;;;;;;;;4.40;4.00;;;;;26.55;27.74;100617.09;4881614;29;45400;-57
2022/08/13 05:53:05;;;;;;;;;6.00;6.00;;;;;26.68;28.11;100637.81;4881007;29;45436;-58
2022/08/13 05:55:31;;;;;;;;;6.00;6.00;;;;;26.66;27.68;100632.53;4881013;29;45312;-53
2022/08/13 05:57:57;;;;;;;;;6.25;5.00;;;;;26.75;28.28;100635.41;4880634;29;45383;-57
2022/08/13 06:03:25;;;;;;;;;4.60;4.60;;;;;26.63;28.03;100623.94;4880749;29;45333;-57
2022/08/13 06:05:57;;;;;;;;;6.20;5.40;;;;;26.75;28.02;100645.81;4879599;29;48394;-64
2022/08/13 06:08:28;;;;;;;;;4.80;4.80;;;;;26.42;28.27;100626.47;4881006;29;45443;-57
2022/08/13 06:10:55;;;;;;;;;6.60;5.40;;;;;26.59;28.19;100635.00;4864138;29;45421;-56
2022/08/13 06:13:21;;;;;;;;;5.20;5.20;;;;;26.73;27.93;100643.31;4864544;29;45366;-57
2022/08/13 06:15:57;;;;;;;;;6.20;6.00;;;;;26.66;28.20;100634.53;4880371;29;46740;-56
2022/08/13 06:18:24;;;;;;;;;6.80;6.80;;;;;26.74;28.45;100642.16;4864939;29;45409;-56
2022/08/13 06:20:52;;;;;;;;;9.00;6.40;;;;;26.74;28.40;100638.53;4863986;29;45296;-55
2022/08/13 06:23:17;;;;;;;;;6.00;6.00;;;;;26.62;28.34;100630.72;4864141;29;45645;-54
2022/08/13 06:25:43;;;;;;;;;5.25;5.25;;;;;26.77;28.30;100633.09;4848065;29;45795;-58
2022/08/13 06:28:10;;;;;;;;;6.00;5.25;;;;;26.74;28.04;100635.72;4880332;29;45762;-58
2022/08/13 06:30:39;;;;;;;;;4.80;4.80;;;;;26.75;28.30;100645.81;4864506;29;45540;-55
2022/08/13 06:33:04;;;;;;;;;5.40;5.40;;;;;26.73;28.66;100642.50;4863224;29;45548;-56
2022/08/13 06:35:31;;;;;;;;;5.00;5.00;;;;;26.77;28.24;100637.88;4880533;29;45867;-59
2022/08/13 06:37:56;;;;;;;;;7.00;4.80;;;;;26.76;28.15;100641.84;4880440;29;45340;-57
2022/08/13 06:40:22;;;;;;;;;7.75;6.75;;;;;26.77;28.46;100646.31;4848175;29;45497;-56
2022/08/13 06:42:48;;;;;;;;;2.40;2.40;;;;;26.73;28.48;100642.50;4829784;28;45472;-55
2022/08/13 06:45:13;;;;;;;;;8.50;6.00;;;;;26.72;28.59;100650.09;4861152;29;45387;-59
2022/08/13 06:47:39;;;;;;;;;6.00;6.00;;;;;26.72;28.77;100641.66;4853550;29;45426;-56
2022/08/13 06:50:10;;;;;;;;;5.60;5.60;;;;;26.74;28.76;100647.78;4880165;29;45478;-55
2022/08/13 06:52:36;;;;;;;;;6.00;6.00;;;;;26.65;28.79;100621.59;4864281;29;45523;-58
2022/08/13 06:55:02;;;;;;;;;7.20;5.40;;;;;26.74;29.03;100625.28;4863183;29;46771;-55
2022/08/13 06:57:30;;;;;;;;;7.00;5.60;;;;;26.94;28.68;100642.75;4863267;29;45437;-54
2022/08/13 06:59:57;;;;;;;;;11.20;7.40;;;;;26.82;28.72;100620.03;4863855;29;45409;-53
2022/08/13 07:02:23;;;;;;;;;9.00;9.00;;;;;27.01;28.97;100653.56;4863721;29;45990;-54
2022/08/13 07:04:54;;;;;;;;;7.25;6.25;;;;;27.05;28.58;100657.41;4880058;29;45601;-57
2022/08/13 07:07:19;;;;;;;;;5.40;5.40;;;;;27.00;28.62;100647.09;4863572;29;45280;-62
2022/08/13 07:09:45;;;;;;;;;5.00;5.00;;;;;27.16;28.61;100667.19;4847759;29;45440;-61
2022/08/13 07:12:12;;;;;;;;;10.25;7.00;;;;;27.09;28.51;100664.00;4863158;29;45601;-63
2022/08/13 07:14:41;;;;;;;;;6.80;6.80;;;;;27.13;28.74;100662.22;4879955;29;45626;-61
2022/08/13 07:17:07;;;;;;;;;6.00;6.00;;;;;27.22;28.66;100658.59;4879687;29;45444;-60
2022/08/13 07:19:34;;;;;;;;;6.00;6.00;;;;;27.22;28.17;100656.63;4879963;29;45293;-61
2022/08/13 07:21:59;;;;;;;;;6.00;6.00;;;;;27.19;28.91;100658.09;4880008;29;45497;-61
2022/08/13 07:24:26;;;;;;;;;5.25;5.00;;;;;27.20;28.70;100659.75;4879509;29;46492;-59
2022/08/13 07:26:52;;;;;;;;;5.20;5.20;;;;;27.16;28.88;100663.56;4863278;29;45895;-55
2022/08/13 07:29:19;;;;;;;;;7.00;5.00;;;;;27.15;29.08;100650.63;4863114;29;45937;-58
2022/08/13 07:31:45;;;;;;;;;5.00;5.00;;;;;27.20;28.95;100648.47;4863397;29;45401;-55
2022/08/13 07:34:10;;;;;;;;;7.25;6.25;;;;;27.33;28.67;100668.41;4879582;29;46464;-56
2022/08/13 07:36:37;;;;;;;;;6.25;5.75;;;;;27.27;28.26;100669.72;4879811;29;45329;-53
2022/08/13 07:39:10;;;;;;;;;5.60;4.80;;;;;27.17;28.33;100660.38;4862769;29;45333;-57
2022/08/13 07:41:45;;;;;;;;;5.00;5.00;;;;;27.35;28.49;100666.06;4846893;29;45504;-55
2022/08/13 07:44:21;;;;;;;;;8.20;8.20;;;;;27.41;28.50;100673.22;4862790;29;46049;-56
2022/08/13 07:46:48;;;;;;;;;6.00;5.40;;;;;27.53;28.15;100668.94;4879589;29;45424;-54
2022/08/13 07:49:13;;;;;;;;;6.20;6.20;;;;;27.40;28.27;100643.38;4863188;29;45516;-51
2022/08/13 07:51:41;;;;;;;;;9.00;9.00;;;;;27.65;28.62;100668.28;4863045;29;45575;-56
2022/08/13 07:54:07;;;;;;;;;5.00;5.00;;;;;27.63;28.29;100662.97;4878922;29;46206;-52
2022/08/13 07:56:33;;;;;;;;;5.60;4.80;;;;;27.70;28.38;100662.50;4862775;29;45401;-53
2022/08/13 07:59:10;;;;;;;;;30.25;18.50;;;;;27.76;28.25;100668.78;4864877;29;45354;-56
2022/08/13 08:01:50;;;;;;;;;12.00;9.00;;;;;27.72;28.26;100660.16;4866403;29;45280;-52
2022/08/13 08:04:16;;;;;;;;;8.60;5.20;;;;;27.79;28.46;100660.50;4882623;29;46606;-59
2022/08/13 08:06:46;;;;;;;;;6.00;6.00;;;;;27.85;28.10;100658.38;4866027;29;45284;-56
2022/08/13 08:09:16;;;;;;;;;7.00;5.60;;;;;27.81;28.71;100669.47;4882971;29;45297;-50
2022/08/13 08:14:27;;;;;;;;;8.20;6.60;;;;;27.94;27.84;100664.81;4882113;29;45928;-53
2022/08/13 08:16:53;;;;;;;;;7.20;5.20;;;;;27.97;28.05;100669.78;4881983;29;45422;-49
2022/08/13 08:19:19;;;;;;;;;6.00;4.25;;;;;27.82;27.77;100631.66;4882500;29;45399;-51
2022/08/13 08:21:45;;;;;;;;;6.20;6.20;;;;;28.07;27.64;100673.44;4865468;29;45710;-51
2022/08/13 08:24:13;;;;;;;;;7.25;5.50;;;;;27.97;28.00;100641.56;4850037;29;46572;-53
2022/08/13 08:26:38;;;;;;;;;5.60;5.60;;;;;28.21;27.50;100664.75;4882487;29;45576;-53
2022/08/13 08:29:09;;;;;;;;;7.00;4.50;;;;;28.28;27.52;100665.94;4865237;29;45482;-55
2022/08/13 08:31:38;;;;;;;;;5.60;4.00;;;;;28.34;27.32;100666.59;4881397;29;45198;-51
2022/08/13 08:34:03;;;;;;;;;4.20;4.20;;;;;28.39;27.30;100668.44;4865104;29;46315;-50
2022/08/13 08:36:29;;;;;;;;;5.00;5.00;;;;;28.44;27.65;100664.59;4867597;29;45394;-54
2022/08/13 08:44:29;;;;;;;;;4.00;4.00;;;;;28.53;26.94;100656.91;4870571;29;45953;-50
2022/08/13 08:46:57;;;;;;;;;5.20;4.00;;;;;28.73;26.89;100677.94;4878013;29;45392;-53
2022/08/13 08:49:24;;;;;;;;;5.00;5.00;;;;;28.61;26.50;100652.41;4865218;29;45376;-55
2022/08/13 08:51:50;;;;;;;;;7.60;6.40;;;;;28.80;26.11;100675.44;4881015;29;45452;-53
2022/08/13 08:54:17;;;;;;;;;6.00;5.00;;;;;28.88;26.35;100675.75;4864848;29;48072;-55
2022/08/13 08:56:43;;;;;;;;;3.00;3.00;;;;;28.93;26.90;100676.38;4865055;29;45431;-53
2022/08/13 08:59:13;;;;;;;;;5.50;5.50;;;;;28.98;26.95;100672.56;4864914;29;45369;-50
2022/08/13 09:01:40;;;;;;;;;3.00;3.00;;;;;29.01;26.28;100671.88;4882385;29;45917;-50
2022/08/13 09:04:07;;;;;;;;;5.40;4.00;;;;;29.06;26.24;100668.03;4862922;29;45908;-55
2022/08/13 09:06:32;;;;;;;;;3.60;3.60;;;;;29.04;26.50;100647.78;4881690;29;45451;-50
2022/08/13 09:09:00;;;;;;;;;5.50;5.50;;;;;29.20;25.82;100664.97;4881312;29;45362;-50
2022/08/13 09:14:48;;;;;;;;;6.80;6.80;;;;;29.45;26.02;100662.31;4877354;29;45561;-50
2022/08/13 09:17:13;;;;;;;;;5.40;5.20;;;;;29.48;26.38;100645.53;4849037;29;45563;-53
2022/08/13 09:19:41;;;;;;;;;7.25;5.25;;;;;29.69;25.14;100661.66;4848179;29;45465;-49
2022/08/13 09:22:06;;;;;;;;;4.00;4.00;;;;;29.78;25.18;100667.25;4881464;29;45403;-48
2022/08/13 09:24:32;;;;;;;;;5.25;3.50;;;;;29.85;24.84;100661.03;4877328;29;45602;-50
2022/08/13 09:26:59;;;;;;;;;4.75;4.75;;;;;30.01;24.92;100666.88;4864621;29;45217;-50
2022/08/13 09:29:24;;;;;;;;;4.00;4.00;;;;;29.95;24.68;100642.78;4849217;29;45460;-50
2022/08/13 09:31:50;;;;;;;;;4.00;4.00;;;;;30.00;25.08;100625.63;4881349;29;45512;-51
2022/08/13 09:34:17;;;;;;;;;5.00;5.00;;;;;30.35;25.09;100664.88;4864144;29;45905;-51
2022/08/13 09:36:42;;;;;;;;;5.20;3.20;;;;;30.47;23.86;100663.28;4855107;29;45804;-53
2022/08/13 09:39:08;;;;;;;;;3.00;3.00;;;;;30.57;23.91;100674.16;4880869;29;45546;-50
2022/08/13 09:41:51;;;;;;;;;5.00;5.00;;;;;30.54;24.33;100669.19;4864655;29;45789;-52
2022/08/13 09:44:17;;;;;;;;;2.60;2.60;;;;;30.64;23.84;100665.06;4850704;29;46633;-54
2022/08/13 09:46:43;;;;;;;;;4.60;4.60;;;;;30.78;24.21;100664.78;4881036;29;45477;-49
2022/08/13 09:49:11;;;;;;;;;5.00;4.00;;;;;30.82;24.02;100654.38;4879834;29;45412;-53
2022/08/13 09:51:36;;;;;;;;;5.40;5.40;;;;;30.82;23.95;100637.38;4881659;29;45184;-49
2022/08/13 09:54:03;;;;;;;;;3.50;3.50;;;;;30.99;24.18;100647.66;4880610;29;45412;-49
2022/08/13 09:56:28;;;;;;;;;4.40;4.40;;;;;30.96;23.63;100642.69;4863951;29;45411;-54
2022/08/13 09:58:54;;;;;;;;;2.75;2.75;;;;;31.05;23.62;100659.59;4880930;29;45398;-49
2022/08/13 10:01:20;;;;;;;;;4.75;4.75;;;;;31.03;23.38;100659.94;4880994;29;45412;-49
2022/08/13 10:03:48;;;;;;;;;4.00;4.00;;;;;31.02;23.12;100663.94;4880558;29;45656;-50
2022/08/13 10:06:14;;;;;;;;;3.80;3.00;;;;;31.02;22.79;100654.63;4880544;29;45502;-50
2022/08/13 10:08:40;;;;;;;;;3.00;3.00;;;;;30.89;23.03;100633.97;4880484;29;45484;-52
2022/08/13 10:11:05;;;;;;;;;3.00;3.00;;;;;30.91;22.28;100623.94;4880529;29;46044;-52
2022/08/13 10:13:31;;;;;;;;;4.00;4.00;;;;;31.07;22.09;100657.22;4880380;29;46668;-51
2022/08/13 10:15:56;;;;;;;;;3.25;3.25;;;;;31.06;22.14;100644.22;4880721;29;45288;-55
2022/08/13 10:18:26;;;;;;;;;2.00;2.00;;;;;31.09;21.69;100643.50;4880359;29;45195;-51
2022/08/13 10:20:53;;;;;;;;;6.40;4.80;;;;;31.11;21.99;100644.00;4878664;29;45607;-52
2022/08/13 10:23:18;;;;;;;;;5.00;4.00;;;;;31.04;21.45;100633.25;4880442;29;46365;-57
2022/08/13 10:25:45;;;;;;;;;4.00;4.00;;;;;31.10;21.70;100642.31;4868824;29;45406;-59
2022/08/13 10:28:20;;;;;;;;;3.00;3.00;;;;;31.10;21.98;100631.81;4879075;29;45353;-52
2022/08/13 10:30:46;;;;;;;;;5.60;3.60;;;;;31.13;22.30;100641.63;4879125;29;45264;-55
2022/08/13 10:33:12;;;;;;;;;3.00;3.00;;;;;31.02;22.05;100609.28;4845126;29;45649;-57
2022/08/13 10:35:39;;;;;;;;;2.40;2.40;;;;;31.41;22.28;100640.91;4879118;29;45339;-53
2022/08/13 10:38:05;;;;;;;;;4.80;3.80;;;;;31.56;21.77;100641.31;4870925;28;45763;-54
2022/08/13 10:40:30;;;;;;;;;5.40;3.60;;;;;31.45;21.38;100606.97;4862172;29;45303;-51
2022/08/13 10:42:56;;;;;;;;;6.00;5.50;;;;;31.66;21.78;100638.00;4862355;29;45874;-52
2022/08/13 10:45:24;;;;;;;;;3.50;3.50;;;;;31.67;21.28;100630.31;4878159;29;45497;-53
2022/08/13 10:47:51;;;;;;;;;3.60;3.00;;;;;31.64;20.98;100624.16;4861435;29;45435;-53
2022/08/13 10:50:19;;;;;;;;;3.60;3.60;;;;;31.72;21.28;100624.38;4855158;29;45655;-52
2022/08/13 10:52:45;;;;;;;;;5.00;3.40;;;;;31.74;21.24;100599.34;4877990;29;46883;-52
2022/08/13 10:55:11;;;;;;;;;4.00;4.00;;;;;31.97;21.33;100615.78;4862939;29;45933;-50
2022/08/13 10:57:39;;;;;;;;;4.20;3.40;;;;;32.01;21.13;100614.69;4878587;29;45561;-48
2022/08/13 11:00:05;;;;;;;;;5.40;4.60;;;;;32.15;21.66;100610.59;4879830;29;45432;-52
2022/08/13 11:02:31;;;;;;;;;4.40;4.40;;;;;32.27;21.12;100615.41;4879678;29;46529;-53
2022/08/13 11:04:57;;;;;;;;;4.25;4.25;;;;;32.28;21.37;100600.81;4879558;29;45277;-50
2022/08/13 11:07:23;;;;;;;;;3.40;3.40;;;;;32.32;21.06;100607.44;4879934;29;45334;-52
2022/08/13 11:09:49;;;;;;;;;5.00;5.00;;;;;32.26;20.77;100606.06;4880237;29;45247;-50
2022/08/13 11:12:16;;;;;;;;;3.80;3.80;;;;;32.14;20.21;100583.41;4880457;29;46823;-51
2022/08/13 11:14:42;;;;;;;;;3.60;3.60;;;;;32.31;20.66;100602.94;4880228;29;45409;-50
2022/08/13 11:17:09;;;;;;;;;3.80;3.80;;;;;32.31;20.51;100602.13;4880435;29;45420;-51
2022/08/13 11:19:38;;;;;;;;;4.60;3.80;;;;;32.25;20.97;100609.25;4880363;29;45516;-52
2022/08/13 11:22:04;;;;;;;;;4.60;3.60;;;;;32.27;21.06;100587.81;4863299;29;46612;-59
2022/08/13 11:24:29;;;;;;;;;3.50;3.50;;;;;32.58;20.87;100610.94;4878792;29;45340;-54
2022/08/13 11:26:55;;;;;;;;;3.25;3.25;;;;;32.67;20.17;100607.94;4879823;29;45439;-54
2022/08/13 11:29:20;;;;;;;;;4.00;4.00;;;;;32.64;20.22;100608.66;4862364;29;45720;-58
2022/08/13 11:31:46;;;;;;;;;4.00;4.00;;;;;32.57;19.74;100600.78;4860150;29;45691;-59
2022/08/13 11:34:11;;;;;;;;;3.00;3.00;;;;;32.51;19.99;100597.41;4847704;29;45522;-59
2022/08/13 11:36:37;;;;;;;;;2.75;2.75;;;;;32.52;19.71;100596.22;4883518;29;45486;-60
2022/08/13 11:39:03;;;;;;;;;3.00;3.00;;;;;32.71;20.27;100600.31;4874111;29;45368;-57
2022/08/13 11:41:28;;;;;;;;;4.00;3.40;;;;;32.86;19.45;100590.94;4883348;29;45859;-54
2022/08/13 11:43:54;;;;;;;;;3.00;3.00;;;;;32.90;20.28;100576.03;4881723;29;45479;-59